Time;durP1;ratioP1;P1;durP2;ratioP2;P2;SDS_P1;SDS_P2;PMS_P1;PMS_P2;Temp;Humidity;BMP_temperature;BMP_pressure;BME280_temperature;BME280_humidity;BME280_pressure;Samples;Min_cycle;Max_cycle;Signal;HPM_P1;HPM_P2
2022/09/04 00:01:05;;;;;;;;;;;17.80;99.90;;;;;;4980593;28;20004;-83
2022/09/04 00:03:34;;;;;;;;;;;17.70;99.90;;;;;;4970300;28;19958;-82
2022/09/04 00:06:04;;;;;;;;;;;17.60;99.90;;;;;;4978291;28;20189;-81
2022/09/04 00:08:47;;;;;;;;;;;17.70;99.90;;;;;;4977239;28;19917;-82
2022/09/04 00:11:32;;;;;;;;;;;17.70;99.90;;;;;;4977074;28;19921;-82
2022/09/04 00:13:59;;;;;;;;;;;17.70;99.90;;;;;;4977767;28;19967;-81
2022/09/04 00:16:43;;;;;;;;;;;17.60;99.90;;;;;;4977913;28;19922;-81
2022/09/04 00:19:09;;;;;;;;;;;17.50;99.90;;;;;;4978423;28;20688;-82
2022/09/04 00:21:42;;;;;;;;;;;17.50;99.90;;;;;;4979434;28;19917;-82
2022/09/04 00:24:14;;;;;;;;;;;17.50;99.90;;;;;;4977467;28;19924;-82
2022/09/04 00:26:49;;;;;;;;;;;17.60;99.90;;;;;;4960450;28;20473;-82
2022/09/04 00:29:35;;;;;;;;;;;17.60;99.90;;;;;;5003154;28;20670;-82
2022/09/04 00:32:07;;;;;;;;;;;17.60;99.90;;;;;;5027029;28;19921;-81
2022/09/04 00:34:38;;;;;;;;;;;17.60;99.90;;;;;;5031750;28;19916;-82
2022/09/04 00:37:05;;;;;;;;;;;17.60;99.90;;;;;;5031344;28;20373;-82
2022/09/04 00:39:51;;;;;;;;;;;17.70;99.90;;;;;;5010073;28;20290;-82
2022/09/04 00:42:20;;;;;;;;;;;17.60;99.90;;;;;;5028111;28;19917;-82
2022/09/04 00:44:59;;;;;;;;;;;17.40;99.90;;;;;;5012138;28;19924;-81
2022/09/04 00:47:43;;;;;;;;;;;17.40;99.90;;;;;;5023488;28;20211;-82
2022/09/04 00:50:11;;;;;;;;;;;17.30;99.90;;;;;;5033180;28;20035;-82
2022/09/04 00:52:40;;;;;;;;;;;17.20;99.90;;;;;;5019005;28;19921;-81
2022/09/04 00:55:11;;;;;;;;;;;17.10;99.90;;;;;;5029078;28;19921;-82
2022/09/04 00:57:41;;;;;;;;;;;17.00;99.90;;;;;;5032288;28;20202;-82
2022/09/04 01:00:13;;;;;;;;;;;17.00;99.90;;;;;;5029577;28;19916;-82
2022/09/04 01:02:39;;;;;;;;;;;17.00;99.90;;;;;;5028299;28;19921;-81
2022/09/04 01:05:23;;;;;;;;;;;17.00;99.90;;;;;;5030677;28;20476;-82
2022/09/04 01:07:55;;;;;;;;;;;16.90;99.90;;;;;;5019676;28;19927;-81
2022/09/04 01:10:24;;;;;;;;;;;16.90;99.90;;;;;;5028527;28;19917;-82
2022/09/04 01:13:11;;;;;;;;;;;16.90;99.90;;;;;;5030599;28;19917;-81
2022/09/04 01:15:37;;;;;;;;;;;16.80;99.90;;;;;;5026457;28;19921;-82
2022/09/04 01:18:09;;;;;;;;;;;16.80;99.90;;;;;;5030468;28;20467;-81
2022/09/04 01:20:46;;;;;;;;;;;16.90;99.90;;;;;;5032142;28;19917;-81
2022/09/04 01:23:12;;;;;;;;;;;16.80;99.90;;;;;;5013337;28;20038;-82
2022/09/04 01:25:56;;;;;;;;;;;16.80;99.90;;;;;;5027223;28;20023;-82
2022/09/04 01:28:39;;;;;;;;;;;16.80;99.90;;;;;;5028490;28;19932;-82
2022/09/04 01:31:04;;;;;;;;;;;16.80;99.90;;;;;;5030078;28;19948;-82
2022/09/04 01:33:39;;;;;;;;;;;16.70;99.90;;;;;;5010193;28;20008;-83
2022/09/04 01:36:10;;;;;;;;;;;16.70;99.90;;;;;;5027567;28;21237;-82
2022/09/04 01:38:41;;;;;;;;;;;16.70;99.90;;;;;;5031581;28;20754;-82
2022/09/04 01:41:26;;;;;;;;;;;16.70;99.90;;;;;;5027708;28;19928;-81
2022/09/04 01:43:52;;;;;;;;;;;16.60;99.90;;;;;;5028849;28;19921;-82
2022/09/04 01:46:30;;;;;;;;;;;16.60;99.90;;;;;;5006531;28;19937;-82
2022/09/04 01:48:55;;;;;;;;;;;16.60;99.90;;;;;;5031553;28;19916;-81
2022/09/04 01:51:36;;;;;;;;;;;16.50;99.90;;;;;;5013467;28;19994;-82
2022/09/04 01:54:18;;;;;;;;;;;16.40;99.90;;;;;;5020536;28;19960;-82
2022/09/04 01:56:49;;;;;;;;;;;16.40;99.90;;;;;;5007002;28;19936;-83
2022/09/04 01:59:21;;;;;;;;;;;16.30;99.90;;;;;;5025155;28;19917;-82
2022/09/04 02:01:51;;;;;;;;;;;16.30;99.90;;;;;;5029932;28;19917;-82
2022/09/04 02:04:26;;;;;;;;;;;16.30;99.90;;;;;;5031710;28;19916;-82
2022/09/04 02:06:54;;;;;;;;;;;16.30;99.90;;;;;;5029991;28;19928;-82
2022/09/04 02:09:40;;;;;;;;;;;16.30;99.90;;;;;;5022281;28;19922;-81
2022/09/04 02:12:05;;;;;;;;;;;16.30;99.90;;;;;;5030254;28;19972;-83
2022/09/04 02:14:36;;;;;;;;;;;16.30;99.90;;;;;;5036287;28;19917;-82
2022/09/04 02:17:17;;;;;;;;;;;16.40;99.90;;;;;;5032026;28;20003;-82
2022/09/04 02:20:01;;;;;;;;;;;16.40;99.90;;;;;;5014595;28;20377;-81
2022/09/04 02:22:43;;;;;;;;;;;16.50;99.90;;;;;;5036138;28;19995;-82
2022/09/04 02:25:21;;;;;;;;;;;16.40;99.90;;;;;;5031645;28;19972;-83
2022/09/04 02:27:47;;;;;;;;;;;16.50;99.90;;;;;;5031756;28;19929;-82
2022/09/04 02:30:14;;;;;;;;;;;16.40;99.90;;;;;;5033889;28;19923;-81
2022/09/04 02:32:42;;;;;;;;;;;16.50;99.90;;;;;;5029465;28;20000;-82
2022/09/04 02:35:19;;;;;;;;;;;16.50;99.90;;;;;;5033155;28;19924;-82
2022/09/04 02:37:57;;;;;;;;;;;16.40;99.90;;;;;;5013159;28;19953;-81
2022/09/04 02:40:23;;;;;;;;;;;16.40;99.90;;;;;;5028299;28;19927;-81
2022/09/04 02:43:06;;;;;;;;;;;16.50;99.90;;;;;;5033679;28;20297;-81
2022/09/04 02:45:35;;;;;;;;;;;16.40;99.90;;;;;;5032054;28;20689;-81
2022/09/04 02:48:13;;;;;;;;;;;16.40;99.90;;;;;;5039436;28;19928;-81
2022/09/04 02:50:57;;;;;;;;;;;16.50;99.90;;;;;;5030224;28;19951;-81
2022/09/04 02:53:28;;;;;;;;;;;16.50;99.90;;;;;;5029930;28;19924;-82
2022/09/04 02:55:57;;;;;;;;;;;16.50;99.90;;;;;;5031281;28;20046;-82
2022/09/04 02:58:31;;;;;;;;;;;16.50;99.90;;;;;;5031209;28;19924;-82
2022/09/04 03:01:08;;;;;;;;;;;16.40;99.90;;;;;;5028506;28;19921;-82
2022/09/04 03:04:00;;;;;;;;;;;16.40;99.90;;;;;;5032015;28;19939;-82
2022/09/04 03:06:39;;;;;;;;;;;16.50;99.90;;;;;;4968790;28;19980;-83
2022/09/04 03:09:07;;;;;;;;;;;16.50;99.90;;;;;;4968206;28;19925;-82
2022/09/04 03:11:39;;;;;;;;;;;16.60;99.90;;;;;;4965591;28;19945;-82
2022/09/04 03:14:16;;;;;;;;;;;16.70;99.90;;;;;;4973378;28;20383;-82
2022/09/04 03:16:48;;;;;;;;;;;16.70;99.90;;;;;;4973096;28;19926;-82
2022/09/04 03:19:18;;;;;;;;;;;16.60;99.90;;;;;;4970868;28;20065;-82
2022/09/04 03:21:44;;;;;;;;;;;16.50;99.90;;;;;;4965970;28;19921;-82
2022/09/04 03:24:12;;;;;;;;;;;16.40;99.90;;;;;;4967092;28;19972;-82
2022/09/04 03:26:49;;;;;;;;;;;16.50;99.90;;;;;;4969295;28;19934;-82
2022/09/04 03:29:23;;;;;;;;;;;16.50;99.90;;;;;;4970883;28;20120;-81
2022/09/04 03:32:03;;;;;;;;;;;16.40;99.90;;;;;;4968961;28;20390;-82
2022/09/04 03:34:32;;;;;;;;;;;16.40;99.90;;;;;;4970392;28;19922;-82
2022/09/04 03:37:08;;;;;;;;;;;16.40;99.90;;;;;;4963219;28;19929;-81
2022/09/04 03:39:33;;;;;;;;;;;16.40;99.90;;;;;;4969055;28;19924;-82
2022/09/04 03:42:13;;;;;;;;;;;16.40;99.90;;;;;;4970946;28;20354;-82
2022/09/04 03:44:47;;;;;;;;;;;16.40;99.90;;;;;;5027989;28;19921;-82
2022/09/04 03:47:31;;;;;;;;;;;16.30;99.90;;;;;;5029362;28;19928;-82
2022/09/04 03:49:57;;;;;;;;;;;16.40;99.90;;;;;;5036800;28;19940;-82
2022/09/04 03:52:35;;;;;;;;;;;16.30;99.90;;;;;;5026397;28;19921;-82
2022/09/04 03:55:00;;;;;;;;;;;16.40;99.90;;;;;;5032587;28;19916;-81
2022/09/04 03:57:34;;;;;;;;;;;16.40;99.90;;;;;;5011062;28;19929;-81
2022/09/04 04:00:05;;;;;;;;;;;16.40;99.90;;;;;;5034423;28;20373;-82
2022/09/04 04:02:40;;;;;;;;;;;16.40;99.90;;;;;;5031486;28;20126;-81
2022/09/04 04:05:21;;;;;;;;;;;16.40;99.90;;;;;;5021112;28;19923;-82
2022/09/04 04:08:05;;;;;;;;;;;16.40;99.90;;;;;;5019338;28;20740;-81
2022/09/04 04:10:38;;;;;;;;;;;16.30;99.90;;;;;;5020331;28;19921;-82
2022/09/04 04:13:12;;;;;;;;;;;16.30;99.90;;;;;;5027695;28;19917;-82
2022/09/04 04:15:56;;;;;;;;;;;16.30;99.90;;;;;;5031174;28;19913;-82
2022/09/04 04:18:40;;;;;;;;;;;16.40;99.90;;;;;;5014341;28;19917;-83
2022/09/04 04:21:06;;;;;;;;;;;16.40;99.90;;;;;;5028320;28;19913;-81
2022/09/04 04:23:45;;;;;;;;;;;16.30;99.90;;;;;;5013306;28;20301;-82
2022/09/04 04:26:14;;;;;;;;;;;16.40;99.90;;;;;;5029542;28;20035;-82
2022/09/04 04:28:46;;;;;;;;;;;16.40;99.90;;;;;;5015378;28;19927;-82
2022/09/04 04:31:15;;;;;;;;;;;16.40;99.90;;;;;;5030186;28;19956;-82
2022/09/04 04:33:50;;;;;;;;;;;16.40;99.90;;;;;;5030792;28;19920;-81
2022/09/04 04:36:23;;;;;;;;;;;16.40;99.90;;;;;;5030339;28;19939;-82
2022/09/04 04:39:04;;;;;;;;;;;16.40;99.90;;;;;;5032172;28;19924;-82
2022/09/04 04:42:04;;;;;;;;;;;16.30;99.90;;;;;;5030904;28;19932;-82
2022/09/04 04:45:48;;;;;;;;;;;16.40;99.90;;;;;;5019507;28;19916;-82
2022/09/04 04:47:35;;;;;;;;;;;16.30;99.90;;;;;;5025412;28;19932;-82
2022/09/04 04:50:19;;;;;;;;;;;16.20;99.90;;;;;;4967168;28;19960;-82
2022/09/04 04:52:55;;;;;;;;;;;16.30;99.90;;;;;;4965703;28;19921;-82
2022/09/04 04:55:28;;;;;;;;;;;16.20;99.90;;;;;;4966639;28;19918;-82
2022/09/04 04:57:59;;;;;;;;;;;16.20;99.90;;;;;;4964565;28;19961;-81
2022/09/04 05:00:39;;;;;;;;;;;16.20;99.90;;;;;;4969708;28;20273;-82
2022/09/04 05:03:07;;;;;;;;;;;16.20;99.90;;;;;;4968537;28;20467;-82
2022/09/04 05:05:49;;;;;;;;;;;16.30;99.90;;;;;;4966625;28;20415;-82
2022/09/04 05:08:21;;;;;;;;;;;16.10;99.90;;;;;;4970729;28;19936;-82
2022/09/04 05:10:53;;;;;;;;;;;16.20;99.90;;;;;;4966021;28;19918;-83
2022/09/04 05:13:19;;;;;;;;;;;16.20;99.90;;;;;;4961204;28;19929;-82
2022/09/04 05:15:53;;;;;;;;;;;16.40;99.90;;;;;;4970696;28;19918;-82
2022/09/04 05:18:25;;;;;;;;;;;16.40;99.90;;;;;;4967169;28;19925;-83
2022/09/04 05:20:50;;;;;;;;;;;16.60;99.90;;;;;;4969752;28;19957;-82
2022/09/04 05:23:24;;;;;;;;;;;16.70;99.90;;;;;;4960192;28;20541;-82
2022/09/04 05:25:52;;;;;;;;;;;16.70;99.90;;;;;;4963012;28;19990;-82
2022/09/04 05:28:22;;;;;;;;;;;16.70;99.90;;;;;;5029301;28;19968;-82
2022/09/04 05:31:08;;;;;;;;;;;16.80;99.90;;;;;;5029997;28;19921;-82
2022/09/04 05:33:39;;;;;;;;;;;16.80;99.90;;;;;;5011747;28;20369;-81
2022/09/04 05:36:12;;;;;;;;;;;16.80;99.90;;;;;;5013037;28;19948;-81
2022/09/04 05:38:45;;;;;;;;;;;16.90;99.90;;;;;;5029302;28;19939;-81
2022/09/04 05:41:16;;;;;;;;;;;17.10;99.90;;;;;;5029953;28;19932;-81
2022/09/04 05:43:42;;;;;;;;;;;17.70;99.90;;;;;;5031928;28;20294;-81
2022/09/04 05:46:16;;;;;;;;;;;18.10;99.90;;;;;;5039162;28;20452;-81
2022/09/04 05:49:01;;;;;;;;;;;18.30;99.90;;;;;;5026084;28;19921;-82
2022/09/04 05:51:38;;;;;;;;;;;18.50;99.90;;;;;;5027101;28;19928;-81
2022/09/04 05:54:12;;;;;;;;;;;18.50;99.90;;;;;;5027683;28;20813;-82
2022/09/04 05:56:44;;;;;;;;;;;18.60;99.90;;;;;;5039410;28;20136;-82
2022/09/04 05:59:10;;;;;;;;;;;18.40;99.90;;;;;;5042597;28;20038;-85
2022/09/04 06:01:44;;;;;;;;;;;17.70;99.90;;;;;;5040305;28;19992;-85
2022/09/04 06:04:20;;;;;;;;;;;17.10;99.90;;;;;;5036015;28;19916;-85
2022/09/04 06:06:52;;;;;;;;;;;16.80;99.90;;;;;;5019774;28;20820;-85
2022/09/04 06:09:27;;;;;;;;;;;16.70;99.90;;;;;;5037568;28;20400;-84
2022/09/04 06:12:02;;;;;;;;;;;16.70;99.90;;;;;;5031434;28;19978;-85
2022/09/04 06:14:34;;;;;;;;;;;16.70;99.90;;;;;;5037865;28;19916;-84
2022/09/04 06:17:19;;;;;;;;;;;16.70;99.90;;;;;;5035856;28;20012;-84
2022/09/04 06:19:56;;;;;;;;;;;16.70;99.90;;;;;;5026581;28;20317;-83
2022/09/04 06:22:28;;;;;;;;;;;16.70;99.90;;;;;;5008813;28;19917;-84
2022/09/04 06:24:56;;;;;;;;;;;16.70;99.90;;;;;;5013254;28;19956;-84
2022/09/04 06:27:34;;;;;;;;;;;17.60;99.90;;;;;;5018285;28;20317;-84
2022/09/04 06:30:00;;;;;;;;;;;18.80;99.90;;;;;;5028128;28;19921;-85
2022/09/04 06:32:28;;;;;;;;;;;19.10;99.90;;;;;;5031941;28;19913;-85
2022/09/04 06:34:53;;;;;;;;;;;19.40;99.90;;;;;;5028046;28;19947;-87
2022/09/04 06:37:19;;;;;;;;;;;19.80;99.90;;;;;;5024953;28;19946;-87
2022/09/04 06:40:04;;;;;;;;;;;20.00;99.90;;;;;;5027448;28;19975;-86
2022/09/04 06:42:32;;;;;;;;;;;20.20;99.90;;;;;;5029258;28;19920;-88
2022/09/04 06:45:00;;;;;;;;;;;20.40;99.90;;;;;;5031633;28;19923;-82
2022/09/04 06:47:48;;;;;;;;;;;21.00;99.90;;;;;;5035163;28;20114;-82
2022/09/04 06:50:16;;;;;;;;;;;21.50;99.90;;;;;;5037419;28;19928;-81
2022/09/04 06:52:54;;;;;;;;;;;22.00;99.90;;;;;;5036130;28;19921;-82
2022/09/04 06:55:29;;;;;;;;;;;22.30;99.90;;;;;;5028552;28;19952;-82
2022/09/04 06:58:04;;;;;;;;;;;22.70;99.90;;;;;;5034141;28;20210;-83
2022/09/04 07:00:37;;;;;;;;;;;22.80;99.90;;;;;;5036023;28;19943;-82
2022/09/04 07:03:03;;;;;;;;;;;23.00;99.90;;;;;;5036645;28;19969;-83
2022/09/04 07:05:28;;;;;;;;;;;23.30;99.90;;;;;;5033725;28;19917;-83
2022/09/04 07:08:07;;;;;;;;;;;23.50;99.90;;;;;;5018332;28;19940;-83
2022/09/04 07:10:40;;;;;;;;;;;23.80;99.90;;;;;;5026173;28;19921;-82
2022/09/04 07:13:20;;;;;;;;;;;23.90;99.90;;;;;;5035273;28;19927;-82
2022/09/04 07:15:59;;;;;;;;;;;24.30;99.90;;;;;;5030154;28;20690;-82
2022/09/04 07:18:53;;;;;;;;;;;24.80;99.70;;;;;;5015905;28;19921;-83
2022/09/04 07:21:30;;;;;;;;;;;25.30;98.20;;;;;;4973664;28;20322;-83
2022/09/04 07:23:56;;;;;;;;;;;25.70;97.70;;;;;;4969889;28;19922;-81
2022/09/04 07:26:34;;;;;;;;;;;25.70;96.40;;;;;;4969273;28;19933;-82
2022/09/04 07:28:59;;;;;;;;;;;26.00;96.50;;;;;;4973914;28;19937;-80
2022/09/04 07:31:37;;;;;;;;;;;26.10;97.10;;;;;;4971582;28;20388;-83
2022/09/04 07:34:02;;;;;;;;;;;26.60;95.30;;;;;;4968770;28;20736;-84
2022/09/04 07:36:48;;;;;;;;;;;27.00;94.40;;;;;;4972378;28;19929;-82
2022/09/04 07:39:16;;;;;;;;;;;26.30;93.50;;;;;;4947338;28;19928;-82
2022/09/04 07:41:44;;;;;;;;;;;26.30;93.80;;;;;;4970729;28;19921;-82
2022/09/04 07:44:18;;;;;;;;;;;26.10;93.20;;;;;;4973825;28;19922;-82
2022/09/04 07:46:45;;;;;;;;;;;26.40;93.10;;;;;;4973460;28;20310;-82
2022/09/04 07:49:31;;;;;;;;;;;27.00;92.50;;;;;;4973175;28;19925;-82
2022/09/04 07:52:21;;;;;;;;;;;27.20;91.70;;;;;;4958921;28;19918;-82
2022/09/04 07:54:49;;;;;;;;;;;27.30;91.30;;;;;;4944578;29;19964;-82
2022/09/04 07:57:33;;;;;;;;;;;28.00;90.40;;;;;;4950934;28;19965;-81
2022/09/04 08:00:12;;;;;;;;;;;28.10;90.00;;;;;;5001072;28;20012;-81
2022/09/04 08:02:43;;;;;;;;;;;28.30;89.30;;;;;;5002284;28;19948;-81
2022/09/04 08:05:28;;;;;;;;;;;28.70;85.80;;;;;;5003043;28;20067;-81
2022/09/04 08:08:02;;;;;;;;;;;28.80;85.70;;;;;;4986178;28;19926;-81
2022/09/04 08:10:29;;;;;;;;;;;29.40;85.60;;;;;;5002506;28;19996;-81
2022/09/04 08:13:34;;;;;;;;;;;29.70;83.60;;;;;;4985846;28;20450;-81
2022/09/04 08:16:06;;;;;;;;;;;30.20;82.90;;;;;;4936635;29;20227;-82
2022/09/04 08:18:38;;;;;;;;;;;30.50;79.50;;;;;;4927899;29;19994;-81
2022/09/04 08:21:07;;;;;;;;;;;30.00;80.00;;;;;;4944677;29;19921;-81
2022/09/04 08:23:35;;;;;;;;;;;30.50;81.00;;;;;;4928563;29;19915;-81
2022/09/04 08:26:13;;;;;;;;;;;30.80;78.60;;;;;;4928401;29;20540;-81
2022/09/04 08:28:56;;;;;;;;;;;30.80;77.60;;;;;;4944326;29;19926;-82
2022/09/04 08:31:30;;;;;;;;;;;30.80;78.00;;;;;;4950378;28;19914;-82
2022/09/04 08:34:06;;;;;;;;;;;31.30;77.00;;;;;;4963490;28;20457;-81
2022/09/04 08:36:37;;;;;;;;;;;31.50;74.60;;;;;;4963947;28;20426;-81
2022/09/04 08:39:08;;;;;;;;;;;30.90;76.50;;;;;;4963410;28;19949;-82
2022/09/04 08:41:44;;;;;;;;;;;31.40;77.60;;;;;;4963395;28;19918;-82
2022/09/04 08:44:12;;;;;;;;;;;32.20;73.20;;;;;;4963454;28;19944;-83
2022/09/04 08:47:00;;;;;;;;;;;31.80;74.60;;;;;;4989907;28;19932;-82
2022/09/04 08:49:45;;;;;;;;;;;32.00;72.90;;;;;;5024666;28;19944;-81
2022/09/04 08:52:22;;;;;;;;;;;31.80;74.90;;;;;;5024810;28;19920;-81
2022/09/04 08:55:17;;;;;;;;;;;31.90;75.00;;;;;;5024625;28;19921;-81
2022/09/04 08:58:01;;;;;;;;;;;32.40;73.00;;;;;;5010793;28;19928;-80
2022/09/04 09:00:39;;;;;;;;;;;31.70;72.20;;;;;;5024478;28;20267;-82
2022/09/04 09:03:10;;;;;;;;;;;32.40;72.10;;;;;;5027287;28;19959;-82
2022/09/04 09:05:54;;;;;;;;;;;32.60;71.20;;;;;;5040950;28;20637;-82
2022/09/04 09:08:48;;;;;;;;;;;32.90;71.30;;;;;;5043842;28;19921;-81
2022/09/04 09:11:19;;;;;;;;;;;34.00;68.70;;;;;;5044491;28;19920;-82
2022/09/04 09:14:04;;;;;;;;;;;33.20;68.90;;;;;;5026208;28;19913;-82
2022/09/04 09:16:30;;;;;;;;;;;33.00;68.30;;;;;;5040885;28;19917;-82
2022/09/04 09:19:09;;;;;;;;;;;32.90;68.30;;;;;;5044126;28;20018;-82
2022/09/04 09:21:52;;;;;;;;;;;32.30;69.00;;;;;;5044464;28;19992;-82
2022/09/04 09:24:37;;;;;;;;;;;32.70;68.70;;;;;;5032222;28;19923;-82
2022/09/04 09:27:15;;;;;;;;;;;33.00;66.80;;;;;;5044083;28;19921;-82
2022/09/04 09:29:49;;;;;;;;;;;33.70;67.80;;;;;;5030101;28;19913;-82
2022/09/04 09:32:33;;;;;;;;;;;33.90;66.80;;;;;;5029503;28;19916;-82
2022/09/04 09:35:20;;;;;;;;;;;33.20;66.10;;;;;;5036691;28;19913;-82
2022/09/04 09:38:00;;;;;;;;;;;33.10;67.00;;;;;;5041408;28;19920;-82
2022/09/04 09:40:35;;;;;;;;;;;34.20;63.70;;;;;;5025004;28;20302;-82
2022/09/04 09:43:04;;;;;;;;;;;34.50;63.10;;;;;;5023622;28;19920;-82
2022/09/04 09:45:30;;;;;;;;;;;35.30;61.10;;;;;;5024246;28;19975;-82
2022/09/04 09:47:58;;;;;;;;;;;34.00;62.50;;;;;;5023891;28;20547;-82
2022/09/04 09:50:26;;;;;;;;;;;34.30;61.10;;;;;;5024283;28;19909;-82
2022/09/04 09:53:11;;;;;;;;;;;34.10;60.50;;;;;;5027149;28;19982;-82
2022/09/04 09:55:49;;;;;;;;;;;33.90;61.30;;;;;;5009418;28;20388;-85
2022/09/04 09:58:34;;;;;;;;;;;33.60;61.50;;;;;;5033095;28;20353;-81
2022/09/04 10:01:18;;;;;;;;;;;33.50;60.70;;;;;;5033360;28;19971;-81
2022/09/04 10:04:05;;;;;;;;;;;32.70;61.40;;;;;;5028045;28;19917;-81
2022/09/04 10:06:49;;;;;;;;;;;31.80;64.10;;;;;;5040873;28;19924;-81
2022/09/04 10:09:29;;;;;;;;;;;31.60;65.60;;;;;;5042570;28;19916;-81
2022/09/04 10:12:00;;;;;;;;;;;31.00;65.80;;;;;;5041127;28;19920;-79
2022/09/04 10:14:32;;;;;;;;;;;30.90;65.70;;;;;;5027834;28;20024;-80
2022/09/04 10:17:11;;;;;;;;;;;30.80;67.10;;;;;;5024888;28;20776;-81
2022/09/04 10:19:56;;;;;;;;;;;30.50;67.60;;;;;;5028431;28;19917;-81
2022/09/04 10:22:34;;;;;;;;;;;30.50;69.50;;;;;;5038551;28;20405;-81
2022/09/04 10:25:12;;;;;;;;;;;30.80;67.50;;;;;;5041771;28;20015;-82
2022/09/04 10:27:57;;;;;;;;;;;30.00;67.80;;;;;;5041509;28;20413;-81
2022/09/04 10:30:22;;;;;;;;;;;30.00;68.90;;;;;;5042112;28;20435;-80
2022/09/04 10:32:50;;;;;;;;;;;30.50;70.00;;;;;;5036905;28;19921;-81
2022/09/04 10:35:19;;;;;;;;;;;29.90;67.70;;;;;;5028538;28;19917;-81
2022/09/04 10:37:57;;;;;;;;;;;29.70;67.50;;;;;;5037677;28;20030;-81
2022/09/04 10:40:36;;;;;;;;;;;30.00;69.10;;;;;;5030225;28;19924;-81
2022/09/04 10:43:17;;;;;;;;;;;29.90;69.80;;;;;;5038425;28;19921;-82
2022/09/04 10:45:52;;;;;;;;;;;30.20;68.70;;;;;;5036442;28;19967;-82
2022/09/04 10:48:18;;;;;;;;;;;30.10;66.60;;;;;;5055242;28;19925;-82
2022/09/04 10:51:03;;;;;;;;;;;30.10;67.20;;;;;;5035385;28;20408;-83
2022/09/04 10:53:50;;;;;;;;;;;30.10;67.20;;;;;;5034353;28;20181;-82
2022/09/04 10:56:28;;;;;;;;;;;30.00;66.40;;;;;;5037791;28;19955;-81
2022/09/04 10:59:26;;;;;;;;;;;29.40;67.30;;;;;;5030356;28;19913;-82
2022/09/04 11:02:10;;;;;;;;;;;29.50;67.40;;;;;;4964420;28;20339;-82
2022/09/04 11:04:38;;;;;;;;;;;29.50;67.90;;;;;;4964436;28;19918;-81
2022/09/04 11:07:03;;;;;;;;;;;29.20;67.80;;;;;;4949802;28;19926;-82
2022/09/04 11:09:41;;;;;;;;;;;29.20;67.40;;;;;;4964387;28;19957;-82
2022/09/04 11:12:18;;;;;;;;;;;29.60;69.70;;;;;;4945096;28;19952;-82
2022/09/04 11:14:53;;;;;;;;;;;29.40;66.80;;;;;;4958440;28;19918;-81
2022/09/04 11:17:22;;;;;;;;;;;29.50;69.00;;;;;;4956515;28;19918;-82
2022/09/04 11:20:02;;;;;;;;;;;29.50;68.20;;;;;;4964200;28;19922;-82
2022/09/04 11:22:46;;;;;;;;;;;29.60;72.10;;;;;;4947391;28;19922;-82
2022/09/04 11:25:23;;;;;;;;;;;29.80;70.60;;;;;;4963351;28;19957;-81
2022/09/04 11:28:05;;;;;;;;;;;29.80;68.80;;;;;;4963521;28;19968;-82
2022/09/04 11:30:33;;;;;;;;;;;29.60;70.60;;;;;;4963603;28;19919;-82
2022/09/04 11:33:17;;;;;;;;;;;29.70;71.70;;;;;;4962536;28;19925;-81
2022/09/04 11:35:52;;;;;;;;;;;29.80;70.10;;;;;;4963165;28;19929;-82
2022/09/04 11:38:23;;;;;;;;;;;29.60;69.80;;;;;;5028964;28;19952;-82
2022/09/04 11:40:55;;;;;;;;;;;29.60;68.40;;;;;;5044533;28;19919;-82
2022/09/04 11:43:39;;;;;;;;;;;29.50;67.90;;;;;;5040300;28;19921;-81
2022/09/04 11:46:05;;;;;;;;;;;29.60;67.00;;;;;;5021223;28;20498;-80
2022/09/04 11:48:46;;;;;;;;;;;29.80;66.00;;;;;;5043157;28;19920;-80
2022/09/04 11:51:17;;;;;;;;;;;29.90;65.80;;;;;;5042996;28;19924;-80
2022/09/04 11:53:43;;;;;;;;;;;30.10;67.20;;;;;;5016320;28;19917;-81
2022/09/04 11:56:11;;;;;;;;;;;29.80;66.70;;;;;;5041851;28;19916;-80
2022/09/04 11:59:00;;;;;;;;;;;29.80;68.20;;;;;;5036949;28;19949;-81
2022/09/04 12:01:44;;;;;;;;;;;29.80;69.80;;;;;;5025319;28;20389;-82
2022/09/04 12:04:28;;;;;;;;;;;29.70;65.70;;;;;;5030990;28;19917;-81
2022/09/04 12:06:58;;;;;;;;;;;29.60;67.90;;;;;;5032400;28;19932;-81
2022/09/04 12:09:24;;;;;;;;;;;29.60;68.50;;;;;;5043965;28;19936;-80
2022/09/04 12:11:59;;;;;;;;;;;29.70;68.40;;;;;;5044276;28;20159;-81
2022/09/04 12:14:25;;;;;;;;;;;29.70;67.20;;;;;;5029257;28;19968;-80
2022/09/04 12:16:50;;;;;;;;;;;29.70;67.60;;;;;;5039645;28;20374;-81
2022/09/04 12:19:38;;;;;;;;;;;29.50;65.80;;;;;;5044649;28;19920;-80
2022/09/04 12:22:19;;;;;;;;;;;29.40;66.60;;;;;;5040983;28;19924;-81
2022/09/04 12:24:47;;;;;;;;;;;29.20;66.40;;;;;;5044829;28;19963;-81
2022/09/04 12:27:25;;;;;;;;;;;29.40;67.10;;;;;;5035578;28;20473;-80
2022/09/04 12:30:09;;;;;;;;;;;29.70;67.70;;;;;;5040608;28;20008;-81
2022/09/04 12:32:54;;;;;;;;;;;29.60;63.10;;;;;;5033454;28;20352;-82
2022/09/04 12:35:32;;;;;;;;;;;29.50;64.80;;;;;;5037632;28;19920;-82
2022/09/04 12:37:59;;;;;;;;;;;29.20;64.10;;;;;;5026256;28;19917;-80
2022/09/04 12:40:29;;;;;;;;;;;29.20;63.50;;;;;;5032643;28;19944;-81
2022/09/04 12:43:21;;;;;;;;;;;29.30;64.90;;;;;;5044005;28;19917;-83
2022/09/04 12:46:05;;;;;;;;;;;29.60;63.20;;;;;;5022948;28;20039;-82
2022/09/04 12:48:50;;;;;;;;;;;29.60;62.80;;;;;;5010196;28;19932;-83
2022/09/04 12:51:23;;;;;;;;;;;29.60;61.70;;;;;;5042962;28;20003;-84
2022/09/04 12:54:08;;;;;;;;;;;29.40;60.50;;;;;;5015727;28;19978;-83
2022/09/04 12:56:42;;;;;;;;;;;29.50;61.40;;;;;;5043042;28;19917;-84
2022/09/04 12:59:21;;;;;;;;;;;29.60;61.40;;;;;;5040019;28;19921;-91
2022/09/04 13:01:58;;;;;;;;;;;29.60;60.80;;;;;;5032500;28;19920;-90
2022/09/04 13:04:30;;;;;;;;;;;29.50;61.40;;;;;;5039906;28;20056;-89
2022/09/04 13:06:55;;;;;;;;;;;29.80;60.80;;;;;;5019683;28;19928;-90
2022/09/04 13:09:56;;;;;;;;;;;29.90;62.80;;;;;;5018136;28;19967;-87
2022/09/04 13:12:24;;;;;;;;;;;30.00;59.30;;;;;;4982525;28;19918;-91
2022/09/04 13:15:02;;;;;;;;;;;30.20;59.60;;;;;;4984072;28;20676;-90
2022/09/04 13:17:42;;;;;;;;;;;30.10;58.20;;;;;;4985164;28;20561;-92
2022/09/04 13:20:10;;;;;;;;;;;30.40;57.70;;;;;;4982860;28;20012;-87
2022/09/04 13:22:52;;;;;;;;;;;30.20;57.70;;;;;;4980785;28;19918;-86
2022/09/04 13:25:21;;;;;;;;;;;30.20;59.40;;;;;;4978452;28;19918;-89
2022/09/04 13:28:02;;;;;;;;;;;30.20;59.30;;;;;;4980935;28;19950;-88
2022/09/04 13:30:29;;;;;;;;;;;30.30;58.90;;;;;;4981711;28;20402;-87
2022/09/04 13:33:00;;;;;;;;;;;30.20;58.60;;;;;;4981094;28;20462;-88
2022/09/04 13:35:40;;;;;;;;;;;29.90;58.20;;;;;;4974387;28;19918;-87
2022/09/04 13:38:24;;;;;;;;;;;29.80;57.50;;;;;;4980196;28;19918;-88
2022/09/04 13:41:22;;;;;;;;;;;29.90;58.10;;;;;;4980067;28;19984;-90
2022/09/04 13:43:48;;;;;;;;;;;30.00;57.10;;;;;;4915162;29;19942;-89
2022/09/04 13:46:16;;;;;;;;;;;30.00;58.40;;;;;;4930149;28;20122;-89
2022/09/04 13:48:50;;;;;;;;;;;30.10;55.80;;;;;;4934446;28;19926;-87
2022/09/04 13:51:31;;;;;;;;;;;30.10;55.30;;;;;;4953051;28;19969;-88
2022/09/04 13:53:57;;;;;;;;;;;30.20;55.20;;;;;;4949993;28;20852;-89
2022/09/04 13:56:44;;;;;;;;;;;30.20;54.80;;;;;;4956782;28;20489;-86
2022/09/04 13:59:15;;;;;;;;;;;30.20;54.50;;;;;;4950071;28;19918;-87
2022/09/04 14:01:44;;;;;;;;;;;30.20;54.80;;;;;;4933742;28;20086;-89
2022/09/04 14:04:15;;;;;;;;;;;30.00;53.20;;;;;;4952293;28;20189;-88
2022/09/04 14:06:41;;;;;;;;;;;30.20;53.10;;;;;;4940723;28;20419;-87
2022/09/04 14:09:07;;;;;;;;;;;30.30;52.40;;;;;;4958962;28;19918;-87
2022/09/04 14:11:36;;;;;;;;;;;30.10;53.00;;;;;;4957916;28;19922;-89
2022/09/04 14:14:20;;;;;;;;;;;30.10;53.20;;;;;;4960180;28;19952;-88
2022/09/04 14:16:49;;;;;;;;;;;30.10;54.20;;;;;;4962891;28;19914;-88
2022/09/04 14:19:20;;;;;;;;;;;30.20;54.10;;;;;;4993874;28;19991;-88
2022/09/04 14:22:01;;;;;;;;;;;30.20;53.30;;;;;;5026190;28;19909;-88
2022/09/04 14:24:32;;;;;;;;;;;30.20;53.40;;;;;;5041826;28;19912;-90
2022/09/04 14:27:01;;;;;;;;;;;30.00;53.80;;;;;;5044010;28;19921;-89
2022/09/04 14:29:31;;;;;;;;;;;29.90;54.20;;;;;;5042215;28;19952;-89
2022/09/04 14:32:09;;;;;;;;;;;29.80;54.60;;;;;;5042017;28;19959;-89
2022/09/04 14:34:58;;;;;;;;;;;29.70;54.80;;;;;;5034353;28;20302;-90
2022/09/04 14:37:27;;;;;;;;;;;29.70;54.30;;;;;;5042592;28;19951;-88
2022/09/04 14:39:53;;;;;;;;;;;29.90;53.80;;;;;;5026986;28;20685;-89
2022/09/04 14:42:34;;;;;;;;;;;30.10;51.50;;;;;;5044863;28;19971;-88
2022/09/04 14:45:11;;;;;;;;;;;30.20;50.50;;;;;;5041822;28;20027;-89
2022/09/04 14:47:39;;;;;;;;;;;30.10;50.60;;;;;;5044677;28;20452;-89
2022/09/04 14:50:12;;;;;;;;;;;30.00;53.10;;;;;;5045105;28;19924;-89
2022/09/04 14:53:03;;;;;;;;;;;29.90;52.50;;;;;;5045253;28;19935;-88
2022/09/04 14:55:31;;;;;;;;;;;29.90;51.40;;;;;;5010430;28;20373;-90
2022/09/04 14:57:58;;;;;;;;;;;30.00;51.40;;;;;;5044674;28;19913;-89
2022/09/04 15:00:23;;;;;;;;;;;30.10;51.80;;;;;;5044637;28;19959;-89
2022/09/04 15:03:14;;;;;;;;;;;30.10;53.40;;;;;;5024044;28;19920;-90